Time;durP1;ratioP1;P1;durP2;ratioP2;P2;SDS_P1;SDS_P2;PMS_P1;PMS_P2;Temp;Humidity;BMP_temperature;BMP_pressure;BME280_temperature;BME280_humidity;BME280_pressure;Samples;Min_cycle;Max_cycle;Signal;HPM_P1;HPM_P2
2024/01/24 00:00:16;;;;;;;12.65;4.57;;;13.50;99.90;;;13.67;100.00;101076.50;4958268;28;20039;-72
2024/01/24 00:02:46;;;;;;;11.93;5.00;;;13.50;99.90;;;13.59;100.00;101055.34;4958494;29;20043;-71
2024/01/24 00:05:18;;;;;;;13.73;4.25;;;13.40;99.90;;;13.65;100.00;101062.34;4958318;29;20365;-69
2024/01/24 00:07:46;;;;;;;8.73;4.15;;;13.40;99.90;;;13.62;100.00;101082.78;4958492;28;20051;-70
2024/01/24 00:10:15;;;;;;;10.20;4.35;;;13.40;99.90;;;13.62;100.00;101096.97;4958418;28;20050;-70
2024/01/24 00:12:44;;;;;;;8.57;3.85;;;13.40;99.90;;;13.62;100.00;101106.69;4958370;29;20070;-70
2024/01/24 00:15:12;;;;;;;13.23;4.53;;;13.40;99.90;;;13.66;100.00;101087.16;4958168;28;20183;-70
2024/01/24 00:17:41;;;;;;;13.25;5.10;;;13.40;99.90;;;13.63;100.00;101071.25;4973026;28;20054;-70
2024/01/24 00:20:12;;;;;;;9.27;4.53;;;13.40;99.90;;;13.60;100.00;101074.84;4958375;28;20481;-70
2024/01/24 00:22:42;;;;;;;12.60;4.68;;;13.40;99.90;;;13.61;100.00;101050.00;4958018;28;20066;-70
2024/01/24 00:25:11;;;;;;;11.93;4.50;;;13.30;99.90;;;13.53;100.00;101076.69;4957935;29;20456;-70
2024/01/24 00:27:39;;;;;;;12.05;4.97;;;13.30;99.90;;;13.53;100.00;101082.00;4957913;28;20051;-70
2024/01/24 00:30:09;;;;;;;9.27;4.30;;;13.30;99.90;;;13.57;100.00;101083.72;4958131;28;20047;-70
2024/01/24 00:32:37;;;;;;;11.05;4.68;;;13.30;99.90;;;13.56;100.00;101110.31;4956932;29;20058;-71
2024/01/24 00:35:07;;;;;;;13.57;4.47;;;13.30;99.90;;;13.52;100.00;101069.63;4955348;28;20043;-70
2024/01/24 00:37:35;;;;;;;17.85;5.22;;;13.30;99.90;;;13.52;100.00;101119.22;4955839;29;20098;-70
2024/01/24 00:40:07;;;;;;;12.07;4.57;;;13.30;99.90;;;13.51;100.00;101099.75;4955988;28;20036;-70
2024/01/24 00:42:38;;;;;;;10.02;4.03;;;13.20;99.90;;;13.55;100.00;101122.72;4955800;28;20050;-70
2024/01/24 00:45:08;;;;;;;14.77;5.18;;;13.30;99.90;;;13.47;100.00;101059.97;4956015;28;20048;-70
2024/01/24 00:47:37;;;;;;;13.68;4.45;;;13.20;99.90;;;13.52;100.00;101101.53;4955914;29;20036;-71
2024/01/24 00:50:07;;;;;;;14.23;5.30;;;13.20;99.90;;;13.46;100.00;101069.69;4955715;28;20138;-70
2024/01/24 00:52:35;;;;;;;13.23;4.38;;;13.20;99.90;;;13.49;100.00;101077.63;4955860;28;20132;-70
2024/01/24 00:55:06;;;;;;;10.85;4.72;;;13.30;99.90;;;13.48;100.00;101163.56;4955458;29;20043;-70
2024/01/24 00:57:35;;;;;;;17.65;4.55;;;13.20;99.90;;;13.46;100.00;101080.34;4955581;28;20126;-71
2024/01/24 01:00:06;;;;;;;17.02;5.10;;;13.20;99.90;;;13.45;100.00;101123.72;4970405;28;20047;-70
2024/01/24 01:02:34;;;;;;;15.85;4.53;;;13.20;99.90;;;13.44;100.00;101139.69;4954465;29;20078;-71
2024/01/24 01:05:04;;;;;;;12.18;4.60;;;13.20;99.90;;;13.44;100.00;101132.63;4955370;29;20035;-70
2024/01/24 01:07:32;;;;;;;14.85;4.50;;;13.20;99.90;;;13.12;100.00;101020.56;4955964;28;20055;-70
2024/01/24 01:10:01;;;;;;;17.25;4.35;;;13.20;99.90;;;13.40;100.00;101080.41;4955077;29;20144;-70
2024/01/24 01:12:31;;;;;;;15.30;4.60;;;13.20;99.90;;;13.30;100.00;101057.50;4955245;28;20050;-71
2024/01/24 01:14:59;;;;;;;15.25;4.15;;;13.10;99.90;;;13.42;100.00;101094.56;4955513;28;20130;-71
2024/01/24 01:17:27;;;;;;;15.35;4.70;;;13.20;99.90;;;13.38;100.00;101074.22;4955252;28;20038;-70
2024/01/24 01:19:56;;;;;;;16.90;5.18;;;13.20;99.90;;;12.80;100.00;100966.91;4953949;29;20055;-71
2024/01/24 01:22:24;;;;;;;18.10;4.50;;;13.10;99.90;;;13.36;100.00;101008.72;4954985;29;20051;-70
2024/01/24 01:24:53;;;;;;;15.18;4.80;;;13.10;99.90;;;13.25;100.00;101054.03;4954970;29;20126;-70
2024/01/24 01:27:22;;;;;;;19.98;4.93;;;13.20;99.90;;;13.36;100.00;101061.84;4955278;29;20051;-70
2024/01/24 01:29:52;;;;;;;15.82;4.90;;;13.10;99.90;;;13.40;100.00;101091.03;4955215;28;20039;-70
2024/01/24 01:32:20;;;;;;;19.23;5.07;;;13.20;99.90;;;13.38;100.00;101050.31;4954994;28;20043;-70
2024/01/24 01:34:49;;;;;;;20.65;5.75;;;13.20;99.90;;;13.39;100.00;101062.69;4954836;28;20387;-70
2024/01/24 01:37:17;;;;;;;16.13;4.88;;;13.20;99.90;;;13.35;100.00;101090.22;4955041;28;20044;-70
2024/01/24 01:39:46;;;;;;;15.10;5.38;;;13.10;99.90;;;13.32;100.00;101045.06;4954703;29;20070;-70
2024/01/24 01:42:14;;;;;;;19.92;5.38;;;13.10;99.90;;;13.20;100.00;101028.44;4954688;28;20043;-70
2024/01/24 01:44:47;;;;;;;18.67;5.03;;;13.10;99.90;;;13.31;100.00;101069.00;4954734;28;20050;-70
2024/01/24 01:47:18;;;;;;;22.05;5.75;;;13.10;99.90;;;13.35;100.00;101039.75;4955363;29;20039;-70
2024/01/24 01:49:46;;;;;;;22.10;5.47;;;13.10;99.90;;;13.29;100.00;101071.69;4954559;29;20063;-70
2024/01/24 01:52:16;;;;;;;19.17;5.50;;;13.00;99.90;;;13.31;100.00;101085.84;4954513;29;20074;-70
2024/01/24 01:54:46;;;;;;;15.93;4.47;;;13.10;99.90;;;13.24;100.00;101054.06;4954505;28;20159;-70
2024/01/24 01:57:15;;;;;;;19.30;5.40;;;13.00;99.90;;;13.24;100.00;101077.97;4954522;28;20122;-70
2024/01/24 01:59:44;;;;;;;19.30;6.40;;;13.00;99.90;;;13.21;100.00;101099.22;4954411;28;20304;-70
2024/01/24 02:02:13;;;;;;;17.33;5.10;;;13.00;99.90;;;13.24;100.00;101091.25;4954209;29;20063;-70
2024/01/24 02:04:43;;;;;;;20.75;5.10;;;13.00;99.90;;;13.14;100.00;101036.47;4969465;28;20050;-70
2024/01/24 02:07:11;;;;;;;21.20;5.35;;;13.00;99.90;;;13.11;100.00;101081.63;4954253;28;20047;-70
2024/01/24 02:09:40;;;;;;;21.30;5.70;;;12.90;99.90;;;13.08;100.00;101074.59;4954851;28;20081;-70
2024/01/24 02:12:09;;;;;;;24.88;6.32;;;12.80;99.90;;;13.11;100.00;101098.47;4954231;28;20047;-70
2024/01/24 02:14:37;;;;;;;20.85;7.65;;;12.90;99.90;;;13.05;100.00;101094.97;4954099;29;20054;-70
2024/01/24 02:17:06;;;;;;;26.50;6.20;;;12.80;99.90;;;13.04;100.00;101080.84;4954054;28;20047;-70
2024/01/24 02:19:35;;;;;;;30.50;7.28;;;12.80;99.90;;;13.06;100.00;101110.94;4953559;28;20497;-70
2024/01/24 02:22:05;;;;;;;23.25;6.32;;;12.80;99.90;;;13.03;100.00;101110.00;4953838;29;20043;-70
2024/01/24 02:24:34;;;;;;;24.40;6.47;;;12.80;99.90;;;12.98;100.00;101122.47;4953994;28;20043;-70
2024/01/24 02:27:03;;;;;;;25.83;5.72;;;12.70;99.90;;;12.94;100.00;101097.75;4954439;28;20511;-70
2024/01/24 02:29:32;;;;;;;26.75;6.22;;;12.70;99.90;;;12.94;100.00;101112.78;4953835;28;20059;-70
2024/01/24 02:32:00;;;;;;;24.95;6.88;;;12.70;99.90;;;12.91;100.00;101116.34;4953703;29;20102;-70
2024/01/24 02:34:29;;;;;;;28.38;6.53;;;12.70;99.90;;;12.82;100.00;101150.94;4954059;28;20051;-70
2024/01/24 02:36:57;;;;;;;25.77;7.68;;;12.60;99.90;;;12.86;100.00;101130.56;4953934;28;20055;-70
2024/01/24 02:39:25;;;;;;;30.27;7.03;;;12.60;99.90;;;12.78;100.00;101117.34;4953920;29;20047;-70
2024/01/24 02:41:55;;;;;;;30.42;7.70;;;12.60;99.90;;;12.73;100.00;101113.88;4953382;28;20122;-70
2024/01/24 02:44:24;;;;;;;43.47;8.93;;;12.50;99.90;;;12.68;100.00;101139.56;4953541;29;20074;-70
2024/01/24 02:46:53;;;;;;;40.67;8.73;;;12.40;99.90;;;12.68;100.00;101142.22;4953644;29;20302;-70
2024/01/24 02:49:21;;;;;;;36.17;8.55;;;12.40;99.90;;;12.47;100.00;101110.56;4953803;28;20055;-69
2024/01/24 02:51:50;;;;;;;39.63;7.75;;;12.40;99.90;;;12.59;100.00;101144.97;4952331;29;20125;-70
2024/01/24 02:54:18;;;;;;;30.92;7.70;;;12.40;99.90;;;12.56;100.00;101127.28;4953710;29;20502;-70
2024/01/24 02:56:47;;;;;;;33.28;7.90;;;12.30;99.90;;;12.50;100.00;101123.81;4953623;28;20075;-70
2024/01/24 02:59:17;;;;;;;36.15;7.38;;;12.30;99.90;;;12.48;100.00;101117.63;4953293;29;20043;-70
2024/01/24 03:01:45;;;;;;;31.48;7.70;;;12.30;99.90;;;12.53;100.00;101151.19;4953237;28;20043;-69
2024/01/24 03:04:14;;;;;;;33.08;7.88;;;12.30;99.90;;;12.53;100.00;101137.94;4953505;29;20043;-70
2024/01/24 03:06:43;;;;;;;39.45;8.02;;;12.30;99.90;;;12.51;100.00;101125.56;4953395;28;20043;-70
2024/01/24 03:09:11;;;;;;;40.67;9.18;;;12.30;99.90;;;12.54;100.00;101136.16;4953120;29;20420;-70
2024/01/24 03:11:40;;;;;;;37.72;7.85;;;12.30;99.90;;;12.49;100.00;101132.66;4952965;29;20106;-70
2024/01/24 03:14:09;;;;;;;39.20;10.00;;;12.30;99.90;;;12.40;100.00;101133.63;4953076;29;20101;-70
2024/01/24 03:16:39;;;;;;;38.75;8.38;;;12.30;99.90;;;11.81;100.00;101034.19;4951998;29;20171;-70
2024/01/24 03:19:08;;;;;;;43.90;8.47;;;12.30;99.90;;;12.48;100.00;101131.78;4953019;28;20118;-70
2024/01/24 03:21:36;;;;;;;38.85;9.65;;;12.30;99.90;;;12.40;100.00;101124.78;4952843;29;20043;-70
2024/01/24 03:24:05;;;;;;;42.63;9.20;;;12.20;99.90;;;12.33;100.00;101136.34;4952905;28;20069;-70
2024/01/24 03:26:33;;;;;;;47.00;10.40;;;12.20;99.90;;;12.30;100.00;101152.25;4951853;29;20074;-70
2024/01/24 03:29:02;;;;;;;41.60;9.63;;;12.10;99.90;;;12.32;100.00;101150.47;4952553;28;20460;-70
2024/01/24 03:31:30;;;;;;;47.50;10.68;;;12.10;99.90;;;12.27;100.00;101173.50;4951432;29;20539;-69
2024/01/24 03:34:00;;;;;;;46.92;10.75;;;12.00;99.90;;;12.25;100.00;101148.75;4953060;29;20047;-70
2024/01/24 03:36:28;;;;;;;49.78;11.90;;;12.00;99.90;;;12.24;100.00;101163.78;4953041;29;20047;-70
2024/01/24 03:38:57;;;;;;;51.58;11.30;;;12.00;99.90;;;12.15;100.00;101187.72;4952740;28;20125;-70
2024/01/24 03:41:26;;;;;;;50.15;11.20;;;12.00;99.90;;;12.23;100.00;101174.41;4951641;28;20132;-70
2024/01/24 03:43:54;;;;;;;53.58;11.30;;;12.00;99.90;;;12.21;100.00;101185.03;4952655;29;20062;-69
2024/01/24 03:46:22;;;;;;;60.85;12.68;;;12.00;99.90;;;12.23;100.00;101153.19;4952665;28;20074;-70
2024/01/24 03:48:51;;;;;;;61.28;12.45;;;12.00;99.90;;;12.25;100.00;101164.69;4967535;28;20114;-70
2024/01/24 03:51:21;;;;;;;50.17;11.50;;;12.00;99.90;;;12.16;100.00;101170.91;4952548;28;20051;-70
2024/01/24 03:53:49;;;;;;;60.47;12.23;;;12.00;99.90;;;12.17;100.00;101169.16;4953078;29;20051;-70
2024/01/24 03:56:18;;;;;;;51.97;12.15;;;11.90;99.90;;;12.09;100.00;101166.53;4953255;29;20130;-70
2024/01/24 03:58:46;;;;;;;65.28;13.98;;;11.90;99.90;;;12.11;100.00;101175.38;4967677;28;20051;-69
2024/01/24 04:01:16;;;;;;;72.82;12.77;;;11.90;99.90;;;11.59;100.00;101108.44;4952715;29;20074;-69
2024/01/24 04:03:44;;;;;;;62.40;13.65;;;11.90;99.90;;;12.16;100.00;101197.44;4952792;28;20237;-70
2024/01/24 04:06:13;;;;;;;61.00;12.35;;;11.90;99.90;;;12.00;100.00;101153.31;4952452;29;20039;-70
2024/01/24 04:08:45;;;;;;;60.38;13.25;;;11.90;99.90;;;12.19;100.00;101197.44;4952350;29;20531;-69
2024/01/24 04:11:14;;;;;;;63.83;13.75;;;12.00;99.90;;;12.11;100.00;101195.69;4952400;29;20055;-69
2024/01/24 04:13:43;;;;;;;78.05;14.00;;;11.90;99.90;;;12.18;100.00;101194.75;4952408;29;20114;-70
2024/01/24 04:16:11;;;;;;;61.75;12.25;;;12.00;99.90;;;12.08;100.00;101166.56;4952340;29;20047;-70
2024/01/24 04:18:40;;;;;;;65.00;13.45;;;11.90;99.90;;;12.10;100.00;101176.25;4952475;28;20051;-69
2024/01/24 04:21:08;;;;;;;66.15;12.27;;;11.80;99.90;;;12.11;100.00;101193.03;4952316;29;20472;-70
2024/01/24 04:23:36;;;;;;;64.95;12.40;;;11.90;99.90;;;12.09;100.00;101174.50;4951285;29;20158;-70
2024/01/24 04:26:08;;;;;;;59.70;12.48;;;11.90;99.90;;;12.03;100.00;101169.22;4967393;28;20609;-70
2024/01/24 04:28:36;;;;;;;64.93;13.50;;;11.90;99.90;;;12.12;100.00;101192.13;4952397;29;20493;-70
2024/01/24 04:31:05;;;;;;;68.72;13.55;;;11.90;99.90;;;12.06;100.00;101205.47;4952234;29;20051;-69
2024/01/24 04:33:33;;;;;;;67.15;12.95;;;12.00;99.90;;;12.21;100.00;101205.38;4952316;29;20059;-69
2024/01/24 04:36:02;;;;;;;47.88;11.00;;;12.00;99.90;;;12.17;100.00;101198.31;4952131;29;20457;-69
2024/01/24 04:38:30;;;;;;;64.20;12.88;;;12.00;99.90;;;12.18;100.00;101208.00;4967347;28;20082;-70
2024/01/24 04:40:58;;;;;;;56.13;13.02;;;11.90;99.90;;;12.22;100.00;101233.63;4952791;28;20114;-69
2024/01/24 04:43:27;;;;;;;57.13;12.75;;;12.00;99.90;;;12.23;100.00;101199.13;4955693;29;20035;-69
2024/01/24 04:45:56;;;;;;;63.77;13.17;;;12.00;99.90;;;12.18;100.00;101226.59;4955707;28;20039;-69
2024/01/24 04:48:24;;;;;;;66.28;12.70;;;12.00;99.90;;;12.24;100.00;101218.59;4954513;29;20059;-70
2024/01/24 04:50:53;;;;;;;73.63;14.18;;;12.00;99.90;;;12.21;100.00;101231.88;4955834;29;20106;-70
2024/01/24 04:53:21;;;;;;;62.85;12.73;;;12.00;99.90;;;12.21;98.73;101256.66;4955939;29;20046;-70
2024/01/24 04:55:50;;;;;;;60.90;12.65;;;12.00;99.90;;;12.19;98.25;101242.50;4955609;29;20531;-69
2024/01/24 04:58:18;;;;;;;58.72;13.15;;;12.00;99.90;;;12.25;98.63;101258.38;4955769;29;20058;-69
2024/01/24 05:00:48;;;;;;;63.92;13.10;;;12.00;99.90;;;12.28;98.10;101268.09;4955647;29;20123;-70
2024/01/24 05:03:17;;;;;;;73.18;14.18;;;12.10;99.90;;;12.43;98.72;101276.84;4955726;29;20054;-69
2024/01/24 05:05:45;;;;;;;72.85;13.38;;;12.10;99.90;;;12.23;98.74;101256.63;4955336;29;20047;-69
2024/01/24 05:08:16;;;;;;;65.00;14.30;;;12.10;99.90;;;12.21;98.50;101280.50;4955818;28;20045;-69
2024/01/24 05:10:44;;;;;;;68.45;14.57;;;12.00;99.90;;;12.23;98.72;101272.53;4955269;29;20074;-69
2024/01/24 05:13:13;;;;;;;70.18;14.73;;;12.00;99.90;;;12.04;98.83;101244.34;4970213;28;20055;-70
2024/01/24 05:15:41;;;;;;;73.75;13.93;;;11.90;99.90;;;12.16;99.46;101289.34;4955478;28;20058;-70
2024/01/24 05:18:11;;;;;;;70.28;14.85;;;11.90;99.90;;;11.67;98.45;101195.91;4955113;28;20047;-69
2024/01/24 05:20:40;;;;;;;65.85;14.07;;;11.90;99.90;;;11.95;97.44;101270.88;4955662;29;20131;-70
2024/01/24 05:23:08;;;;;;;76.20;15.45;;;11.80;99.90;;;11.97;97.06;101277.06;4955361;29;20035;-69
2024/01/24 05:25:37;;;;;;;78.53;14.68;;;11.80;99.90;;;11.75;97.00;101232.06;4955036;28;20130;-69
2024/01/24 05:28:06;;;;;;;71.13;14.15;;;11.70;99.90;;;11.86;96.91;101281.53;4955013;29;20051;-69
2024/01/24 05:30:34;;;;;;;71.22;14.10;;;11.70;99.90;;;11.87;97.15;101270.91;4955122;29;20079;-69
2024/01/24 05:33:05;;;;;;;81.70;14.88;;;11.60;99.90;;;11.83;97.96;101268.28;4954013;28;20053;-69
2024/01/24 05:35:35;;;;;;;84.65;14.30;;;11.60;99.90;;;11.79;99.20;101262.97;4954849;29;20043;-69
2024/01/24 05:38:04;;;;;;;78.77;14.83;;;11.60;99.90;;;11.76;100.00;101272.72;4955446;29;20058;-69
2024/01/24 05:40:32;;;;;;;78.80;15.35;;;11.50;99.90;;;11.81;100.00;101299.22;4954749;28;20479;-70
2024/01/24 05:43:02;;;;;;;87.43;15.85;;;11.60;99.90;;;11.64;100.00;101299.19;4954676;29;20039;-69
2024/01/24 05:45:32;;;;;;;79.53;15.15;;;11.50;99.90;;;11.69;100.00;101323.97;4954675;29;20090;-69
2024/01/24 05:48:01;;;;;;;89.32;16.15;;;11.40;99.90;;;11.66;100.00;101343.41;4954699;28;20043;-69
2024/01/24 05:50:29;;;;;;;77.32;15.32;;;11.40;99.90;;;11.59;100.00;101317.75;4954609;29;20071;-69
2024/01/24 05:52:59;;;;;;;82.88;16.38;;;11.40;99.90;;;11.67;100.00;101344.28;4953840;28;20110;-69
2024/01/24 05:55:28;;;;;;;75.30;14.63;;;11.40;99.90;;;11.59;99.92;101344.25;4955031;28;20077;-69
2024/01/24 05:57:56;;;;;;;78.43;15.48;;;11.40;99.90;;;11.45;99.74;101351.34;4969390;28;20051;-70
2024/01/24 06:00:25;;;;;;;84.32;16.33;;;11.30;99.90;;;11.55;99.07;101366.34;4954416;29;20551;-69
2024/01/24 06:02:53;;;;;;;85.60;15.10;;;11.30;99.90;;;11.49;98.18;101363.69;4955067;29;20051;-69
2024/01/24 06:05:22;;;;;;;81.38;15.02;;;11.30;99.90;;;11.51;97.25;101369.00;4954249;29;20047;-69
2024/01/24 06:07:50;;;;;;;75.68;14.68;;;11.30;99.90;;;11.56;96.13;101386.66;4954719;29;20072;-69
2024/01/24 06:10:20;;;;;;;77.63;15.82;;;11.30;99.90;;;11.59;95.13;101373.38;4954722;29;20054;-69
2024/01/24 06:12:49;;;;;;;81.17;15.00;;;11.40;99.90;;;11.58;94.48;101376.03;4954960;28;20075;-69
2024/01/24 06:15:18;;;;;;;89.90;15.38;;;11.40;99.90;;;11.53;93.89;101394.63;4954634;29;20047;-69
2024/01/24 06:17:47;;;;;;;79.35;16.13;;;11.30;99.90;;;11.53;93.11;101402.56;4954056;28;20098;-69
2024/01/24 06:20:15;;;;;;;84.28;16.48;;;11.40;99.90;;;11.54;92.56;101414.91;4954221;28;20047;-69
2024/01/24 06:22:46;;;;;;;88.15;16.00;;;11.30;99.90;;;11.47;92.04;101407.84;4953784;29;20041;-69
2024/01/24 06:25:15;;;;;;;78.22;16.00;;;11.30;99.90;;;11.50;91.19;101436.09;4954558;28;20051;-69
2024/01/24 06:27:45;;;;;;;73.18;14.18;;;11.30;99.90;;;11.45;90.97;101433.47;4953865;29;20043;-69
2024/01/24 06:30:15;;;;;;;77.13;14.57;;;11.20;99.90;;;11.42;90.30;101411.38;4954245;29;20055;-69
2024/01/24 06:32:51;;;;;;;62.53;14.20;;;11.20;99.90;;;11.45;89.80;101435.22;4953847;29;20146;-69
2024/01/24 06:35:21;;;;;;;77.00;14.63;;;11.20;99.90;;;11.42;89.26;101428.13;4953722;28;20099;-69
2024/01/24 06:37:50;;;;;;;76.40;14.80;;;11.20;99.90;;;11.31;89.23;101443.13;4953802;28;20139;-69
2024/01/24 06:40:19;;;;;;;80.47;15.55;;;11.20;99.90;;;11.39;88.62;101466.97;4953923;29;20092;-69
2024/01/24 06:42:50;;;;;;;70.40;14.10;;;11.20;99.90;;;11.28;88.23;101498.75;4954060;29;20047;-69
2024/01/24 06:45:19;;;;;;;82.40;14.30;;;11.10;99.90;;;11.25;87.98;101481.94;4953842;29;20051;-69
2024/01/24 06:47:48;;;;;;;75.40;13.43;;;11.10;99.90;;;11.34;87.68;101469.63;4953450;29;20510;-69
2024/01/24 06:50:18;;;;;;;80.88;14.55;;;11.10;99.90;;;11.38;87.58;101457.28;4953758;29;20208;-69
2024/01/24 06:52:46;;;;;;;72.72;14.70;;;11.10;99.90;;;11.28;87.23;101464.34;4953417;29;20047;-69
2024/01/24 06:55:16;;;;;;;73.47;14.38;;;11.10;99.90;;;11.01;86.95;101437.78;4953538;29;20051;-69
2024/01/24 06:57:45;;;;;;;84.95;15.95;;;11.00;99.90;;;11.29;86.97;101471.38;4953314;29;20130;-69
2024/01/24 07:00:18;;;;;;;72.60;13.93;;;11.00;99.90;;;11.39;86.52;101453.75;4953510;29;20456;-69
2024/01/24 07:02:48;;;;;;;67.25;14.23;;;11.10;99.90;;;11.30;86.44;101486.41;4953530;28;20114;-69
2024/01/24 07:05:17;;;;;;;73.78;15.07;;;11.10;99.90;;;11.35;86.40;101520.81;4952971;28;20646;-69
2024/01/24 07:07:45;;;;;;;70.70;13.75;;;11.10;99.90;;;11.26;85.97;101500.53;4952978;29;20047;-69
2024/01/24 07:10:14;;;;;;;80.80;14.80;;;11.10;99.90;;;11.24;86.03;101491.69;4968102;28;20059;-69
2024/01/24 07:12:45;;;;;;;65.43;14.05;;;11.10;99.90;;;11.32;85.98;101505.84;4968103;28;20051;-69
2024/01/24 07:15:17;;;;;;;73.50;14.20;;;11.10;99.90;;;11.27;85.56;101502.28;4953171;29;20074;-69
2024/01/24 07:17:46;;;;;;;67.38;13.75;;;11.10;99.90;;;11.35;85.43;101523.47;4952886;28;20043;-69
2024/01/24 07:20:15;;;;;;;63.38;13.60;;;11.10;99.90;;;11.28;85.25;101521.69;4952693;28;20058;-69
2024/01/24 07:22:44;;;;;;;77.30;14.25;;;11.10;99.90;;;11.35;84.84;101504.94;4952898;28;20047;-69
2024/01/24 07:25:12;;;;;;;72.10;14.20;;;11.10;99.90;;;11.28;84.78;101514.66;4953316;29;20047;-70
2024/01/24 07:27:41;;;;;;;69.18;14.40;;;11.10;99.90;;;11.24;84.67;101504.94;4953147;29;20047;-69
2024/01/24 07:30:11;;;;;;;74.50;15.00;;;11.00;99.90;;;11.22;84.91;101519.03;4968173;28;20043;-70
2024/01/24 07:32:40;;;;;;;66.45;13.48;;;11.00;99.90;;;11.16;84.77;101525.19;4953011;28;20508;-68
2024/01/24 07:35:10;;;;;;;75.72;14.98;;;11.00;99.90;;;11.23;84.45;101526.97;4952823;29;20054;-68
2024/01/24 07:37:38;;;;;;;73.50;14.93;;;11.00;99.90;;;11.14;84.62;101548.13;4967797;28;20039;-68
2024/01/24 07:40:10;;;;;;;77.45;13.45;;;11.00;99.90;;;11.33;84.27;101560.56;4953006;29;20063;-68
2024/01/24 07:42:39;;;;;;;72.45;14.25;;;11.10;99.90;;;11.39;84.16;101575.59;4951698;29;20079;-69
2024/01/24 07:45:09;;;;;;;75.35;14.85;;;11.20;99.90;;;11.27;84.04;101568.47;4951334;29;20043;-66
2024/01/24 07:47:37;;;;;;;66.47;14.45;;;11.10;99.90;;;11.41;84.04;101587.06;4952553;29;20043;-67
2024/01/24 07:50:11;;;;;;;70.68;13.75;;;11.20;99.90;;;11.38;83.84;101561.44;4951180;29;20154;-65
2024/01/24 07:52:40;;;;;;;68.10;13.70;;;11.20;99.90;;;11.47;83.87;101589.75;4951360;29;20048;-65
2024/01/24 07:55:11;;;;;;;69.38;15.30;;;11.20;99.90;;;11.27;84.10;101581.72;4953114;28;20122;-68
2024/01/24 07:57:41;;;;;;;80.25;15.40;;;11.20;99.90;;;11.27;84.08;101605.56;4967540;28;20390;-67
2024/01/24 08:00:16;;;;;;;69.72;14.35;;;11.20;99.90;;;11.38;84.20;101601.19;4952772;28;20122;-69
2024/01/24 08:02:46;;;;;;;76.60;14.95;;;11.20;99.90;;;11.40;84.31;101594.13;4952759;29;20094;-69
2024/01/24 08:05:22;;;;;;;71.60;14.32;;;11.20;99.90;;;11.38;84.60;101587.06;4952495;29;20050;-69
2024/01/24 08:07:51;;;;;;;82.97;14.27;;;11.20;99.90;;;11.41;84.63;101621.50;4952722;28;20400;-69
2024/01/24 08:10:19;;;;;;;73.97;14.40;;;11.20;99.90;;;11.37;84.74;101625.03;4951372;29;20074;-69
2024/01/24 08:12:49;;;;;;;68.65;14.88;;;11.20;99.90;;;11.46;84.73;101633.00;4952490;29;20050;-67
2024/01/24 08:15:18;;;;;;;81.38;15.27;;;11.20;99.90;;;11.50;84.50;101626.84;4952872;28;20057;-69
2024/01/24 08:17:47;;;;;;;78.28;14.55;;;11.30;99.90;;;11.52;84.15;101641.88;4956163;28;20047;-69
2024/01/24 08:20:19;;;;;;;68.90;14.57;;;11.30;99.90;;;11.42;84.56;101645.34;4956673;28;20046;-69
2024/01/24 08:22:49;;;;;;;63.88;13.05;;;11.20;99.90;;;11.51;84.41;101634.81;4956438;28;20050;-69
2024/01/24 08:25:18;;;;;;;76.30;14.13;;;11.30;99.90;;;11.45;84.39;101621.53;4956288;29;20039;-69
2024/01/24 08:27:46;;;;;;;81.53;15.93;;;11.20;99.90;;;10.90;84.24;101579.75;4956173;29;20215;-69
2024/01/24 08:30:15;;;;;;;58.83;12.82;;;11.20;99.90;;;11.48;84.17;101652.44;4956489;28;20054;-69
2024/01/24 08:32:44;;;;;;;70.60;15.48;;;11.30;99.90;;;11.58;83.84;101657.78;4955937;29;20406;-69
2024/01/24 08:35:12;;;;;;;81.07;14.63;;;11.30;99.90;;;11.60;83.62;101674.59;4955830;29;20042;-69
2024/01/24 08:37:42;;;;;;;75.85;14.63;;;11.40;99.90;;;11.65;83.39;101669.31;4955864;29;20065;-69
2024/01/24 08:40:12;;;;;;;75.47;15.52;;;11.40;99.90;;;11.59;83.29;101672.78;4955769;29;20070;-69
2024/01/24 08:42:43;;;;;;;73.13;14.70;;;11.40;99.90;;;11.56;83.18;101653.34;4954863;29;20122;-69
2024/01/24 08:45:12;;;;;;;74.18;15.55;;;11.40;99.90;;;11.68;82.95;101691.44;4954659;29;20102;-69
2024/01/24 08:47:40;;;;;;;67.65;14.07;;;11.50;99.90;;;11.64;82.89;101679.03;4955660;29;20544;-69
2024/01/24 08:50:10;;;;;;;67.38;14.05;;;11.40;99.90;;;11.69;83.00;101706.44;4955762;29;20070;-69
2024/01/24 08:52:39;;;;;;;65.82;14.73;;;11.50;99.90;;;11.70;82.87;101729.44;4955650;28;20094;-69
2024/01/24 08:55:08;;;;;;;69.45;13.18;;;11.50;99.90;;;11.65;82.81;101733.81;4955519;29;20047;-69
2024/01/24 08:57:38;;;;;;;76.43;15.38;;;11.50;99.90;;;11.70;82.91;101720.59;4955718;28;20047;-69
2024/01/24 09:00:09;;;;;;;65.05;13.65;;;11.50;99.90;;;11.90;82.72;101718.03;4955497;28;20051;-69
2024/01/24 09:02:37;;;;;;;79.72;15.45;;;11.60;99.90;;;11.84;82.13;101726.84;4957248;28;20047;-69
2024/01/24 09:05:08;;;;;;;67.60;13.30;;;11.70;99.90;;;11.90;81.95;101708.31;4957155;29;20082;-69
2024/01/24 09:07:37;;;;;;;79.72;14.98;;;11.70;99.90;;;11.83;81.84;101687.94;4957236;29;20491;-70
2024/01/24 09:10:09;;;;;;;60.30;13.15;;;11.80;99.90;;;11.90;81.49;101712.72;4957209;28;20535;-69
2024/01/24 09:12:39;;;;;;;;;;;11.80;99.90;;;12.07;81.39;101749.03;4956426;29;20071;-69
2024/01/24 09:15:09;;;;;;;61.97;13.95;;;11.80;99.90;;;12.06;81.17;101779.06;4956990;29;19926;-69
2024/01/24 09:17:38;;;;;;;76.47;14.57;;;11.80;99.90;;;11.96;81.31;101733.97;4957451;28;20054;-69
2024/01/24 09:20:08;;;;;;;70.10;13.55;;;11.90;99.90;;;12.08;81.12;101768.50;4956924;29;20504;-69
2024/01/24 09:22:37;;;;;;;78.13;14.82;;;11.90;99.90;;;12.13;81.16;101769.38;4957343;28;20055;-69
2024/01/24 09:25:07;;;;;;;65.95;14.13;;;11.90;99.90;;;12.06;81.16;101794.13;4956725;29;20097;-70
2024/01/24 09:27:41;;;;;;;68.55;14.55;;;11.90;99.90;;;12.03;81.42;101791.44;4955847;28;20055;-69
2024/01/24 09:30:10;;;;;;;75.38;15.25;;;11.80;99.90;;;12.02;81.50;101782.59;4957086;29;20491;-69
2024/01/24 09:32:38;;;;;;;67.13;15.35;;;11.80;99.90;;;11.92;81.76;101764.00;4956695;29;20040;-69
2024/01/24 09:35:08;;;;;;;71.20;14.43;;;11.70;99.90;;;11.89;81.79;101771.91;4957249;29;20039;-69
2024/01/24 09:37:37;;;;;;;72.53;13.90;;;11.70;99.90;;;11.79;82.02;101760.38;4956594;29;20098;-69
2024/01/24 09:40:07;;;;;;;72.53;14.48;;;11.60;99.90;;;11.98;82.16;101798.50;4956890;29;20055;-69
2024/01/24 09:42:42;;;;;;;;;;;11.70;99.90;;;12.02;81.98;101781.72;4957022;29;20051;-69
2024/01/24 09:45:11;;;;;;;77.65;15.25;;;11.80;99.90;;;12.14;81.81;101803.84;4956724;28;19922;-69
2024/01/24 09:47:42;;;;;;;80.95;14.35;;;11.80;99.90;;;12.36;81.22;101831.38;4956423;29;20039;-70
2024/01/24 09:50:12;;;;;;;65.70;13.80;;;12.00;99.90;;;12.56;80.54;101845.59;4971340;28;20493;-70
2024/01/24 09:52:42;;;;;;;74.38;14.48;;;12.30;99.90;;;12.76;79.63;101830.59;4956375;28;20126;-69
2024/01/24 09:55:16;;;;;;;73.78;13.50;;;12.50;99.90;;;12.85;78.49;101833.28;4956332;28;20490;-69
2024/01/24 09:57:49;;;;;;;65.35;13.38;;;12.60;99.90;;;12.92;78.04;101836.81;4956584;29;20055;-69
2024/01/24 10:00:18;;;;;;;70.22;13.70;;;12.70;99.90;;;13.14;77.23;101854.59;4956542;28;20105;-69
2024/01/24 10:02:47;;;;;;;60.47;13.38;;;12.90;99.90;;;13.29;76.88;101867.88;4956171;29;20471;-69
2024/01/24 10:05:19;;;;;;;68.10;13.80;;;13.00;99.90;;;13.24;76.19;101862.56;4956102;29;20115;-69
2024/01/24 10:07:48;;;;;;;75.63;14.73;;;13.00;99.90;;;13.09;76.12;101861.66;4956400;29;20479;-70